createdAt,value
2023-05-21T00:00:17.949Z,101552.44
2023-05-21T00:02:45.990Z,101553.22
2023-05-21T00:05:15.509Z,101547.94
2023-05-21T00:07:45.795Z,101545.56
2023-05-21T00:10:14.101Z,101543.19
2023-05-21T00:12:42.641Z,101545.09
2023-05-21T00:15:11.922Z,101545.81
2023-05-21T00:17:40.202Z,101549.28
2023-05-21T00:20:10.098Z,101543.78
2023-05-21T00:22:38.177Z,101543.41
2023-05-21T00:25:08.582Z,101533.78
2023-05-21T00:27:36.628Z,101542.69
2023-05-21T00:30:05.109Z,101535.41
2023-05-21T00:32:33.155Z,101524.56
2023-05-21T00:35:01.164Z,101528.75
2023-05-21T00:37:29.755Z,101532.63
2023-05-21T00:39:58.486Z,101536.25
2023-05-21T00:42:30.629Z,101534.97
2023-05-21T00:44:58.724Z,101525.41
2023-05-21T00:47:29.563Z,101525.91
2023-05-21T00:49:57.819Z,101523.94
2023-05-21T00:52:26.926Z,101525.09
2023-05-21T00:54:56.216Z,101518.88
2023-05-21T00:57:28.217Z,101521.81
2023-05-21T00:59:56.281Z,101512.72
2023-05-21T01:02:26.118Z,101517.25
2023-05-21T01:04:56.242Z,101509.25
2023-05-21T01:07:24.374Z,101513.16
2023-05-21T01:09:54.171Z,101506.66
2023-05-21T01:12:23.071Z,101509.75
2023-05-21T01:14:53.646Z,101505.81
2023-05-21T01:17:24.322Z,101504.69
2023-05-21T01:19:54.719Z,101505.97
2023-05-21T01:22:24.841Z,101500.59
2023-05-21T01:24:56.408Z,101505.72
2023-05-21T01:27:24.407Z,101504.91
2023-05-21T01:29:52.378Z,101505.84
2023-05-21T01:32:29.108Z,101508.59
2023-05-21T01:35:05.578Z,101500.94
2023-05-21T01:37:52.560Z,101502.41
2023-05-21T01:40:30.824Z,101501.13
2023-05-21T01:42:59.790Z,101503.44
2023-05-21T01:45:33.111Z,101501.16
2023-05-21T01:48:01.667Z,101499.13
2023-05-21T01:50:31.847Z,101498.72
2023-05-21T01:53:00.973Z,101496.56
2023-05-21T01:55:31.287Z,101497.09
2023-05-21T01:58:02.456Z,101490.16
2023-05-21T02:00:32.565Z,101491.00
2023-05-21T02:03:00.371Z,101489.81
2023-05-21T02:05:28.479Z,101489.31
2023-05-21T02:07:57.100Z,101487.13
2023-05-21T02:10:25.101Z,101493.72
2023-05-21T02:12:54.472Z,101496.44
2023-05-21T02:15:22.575Z,101484.59
2023-05-21T02:17:51.277Z,101478.13
2023-05-21T02:20:19.408Z,101480.88
2023-05-21T02:22:49.311Z,101482.56
2023-05-21T02:25:19.713Z,101472.81
2023-05-21T02:27:47.736Z,101470.91
2023-05-21T02:30:17.194Z,101474.50
2023-05-21T02:32:45.407Z,101474.47
2023-05-21T02:35:14.417Z,101477.19
2023-05-21T02:37:44.103Z,101476.69
2023-05-21T02:40:13.729Z,101470.03
2023-05-21T02:42:42.442Z,101468.00
2023-05-21T02:45:12.871Z,101471.09
2023-05-21T02:47:42.364Z,101471.13
2023-05-21T02:50:11.156Z,101471.09
2023-05-21T02:52:39.176Z,101463.94
2023-05-21T02:55:08.799Z,101469.19
2023-05-21T02:57:36.765Z,101467.66
2023-05-21T03:00:06.245Z,101466.50
2023-05-21T03:02:34.376Z,101463.97
2023-05-21T03:05:03.867Z,101462.81
2023-05-21T03:07:32.369Z,101460.41
2023-05-21T03:10:00.419Z,101459.72
2023-05-21T03:12:28.878Z,101453.78
2023-05-21T03:14:56.938Z,101463.63
2023-05-21T03:17:24.890Z,101460.19
2023-05-21T03:19:54.518Z,101468.00
2023-05-21T03:22:23.935Z,101458.16
2023-05-21T03:24:53.326Z,101462.53
2023-05-21T03:27:21.402Z,101460.50
2023-05-21T03:29:50.098Z,101468.63
2023-05-21T03:32:18.323Z,101462.25
2023-05-21T03:34:46.408Z,101457.47
2023-05-21T03:37:14.375Z,101467.97
2023-05-21T03:39:43.737Z,101464.72
2023-05-21T03:42:13.977Z,101470.50
2023-05-21T03:44:41.957Z,101470.22
2023-05-21T03:47:09.985Z,101470.91
2023-05-21T03:49:38.050Z,101475.44
2023-05-21T03:52:06.697Z,101463.50
2023-05-21T03:54:34.766Z,101470.38
2023-05-21T03:57:04.229Z,101473.72
2023-05-21T03:59:32.203Z,101475.06
2023-05-21T04:02:00.285Z,101473.94
2023-05-21T04:04:29.727Z,101468.47
2023-05-21T04:06:57.730Z,101475.97
2023-05-21T04:09:25.799Z,101483.22
2023-05-21T04:11:53.837Z,101476.44
2023-05-21T04:14:23.651Z,101473.00
2023-05-21T04:16:51.475Z,101483.56
2023-05-21T04:19:19.502Z,101483.06
2023-05-21T04:21:47.542Z,101485.19
2023-05-21T04:24:15.584Z,101479.81
2023-05-21T04:26:44.538Z,101479.78
2023-05-21T04:29:12.568Z,101481.34
2023-05-21T04:31:42.159Z,101489.75
2023-05-21T04:34:10.419Z,101492.91
2023-05-21T04:36:38.761Z,101487.69
2023-05-21T04:39:07.269Z,101490.66
2023-05-21T04:41:36.712Z,101492.09
2023-05-21T04:44:04.892Z,101485.88
2023-05-21T04:46:32.952Z,101487.00
2023-05-21T04:49:03.785Z,101496.06
2023-05-21T04:51:32.219Z,101495.84
2023-05-21T04:54:00.598Z,101488.13
2023-05-21T04:56:29.518Z,101492.22
2023-05-21T04:58:58.746Z,101484.69
2023-05-21T05:01:29.508Z,101492.91
2023-05-21T05:03:57.590Z,101488.88
2023-05-21T05:06:27.104Z,101494.13
2023-05-21T05:08:55.106Z,101485.38
2023-05-21T05:11:23.453Z,101488.75
2023-05-21T05:13:51.549Z,101484.97
2023-05-21T05:16:25.310Z,101483.09
2023-05-21T05:18:53.930Z,101490.66
2023-05-21T05:21:24.590Z,101481.59
2023-05-21T05:23:54.024Z,101489.19
2023-05-21T05:26:22.635Z,101487.94
2023-05-21T05:28:50.741Z,101488.13
2023-05-21T05:31:18.930Z,101492.16
2023-05-21T05:33:48.405Z,101496.34
2023-05-21T05:36:16.706Z,101494.22
2023-05-21T05:38:44.700Z,101495.06
2023-05-21T05:41:14.182Z,101490.91
2023-05-21T05:43:42.266Z,101485.72
2023-05-21T05:46:10.673Z,101485.72
2023-05-21T05:48:38.718Z,101489.53
2023-05-21T05:51:06.834Z,101493.81
2023-05-21T05:53:34.832Z,101485.94
2023-05-21T05:56:02.851Z,101489.78
2023-05-21T05:58:32.544Z,101490.47
2023-05-21T06:01:00.332Z,101485.19
2023-05-21T06:03:29.552Z,101481.53
2023-05-21T06:05:59.475Z,101477.72
2023-05-21T06:08:27.329Z,101481.63
2023-05-21T06:10:55.482Z,101481.94
2023-05-21T06:13:23.420Z,101480.34
2023-05-21T06:15:54.465Z,101484.75
2023-05-21T06:18:22.516Z,101479.53
2023-05-21T06:20:50.488Z,101486.91
2023-05-21T06:23:18.694Z,101472.78
2023-05-21T06:25:46.632Z,101473.81
2023-05-21T06:28:14.675Z,101467.03
2023-05-21T06:30:42.656Z,101463.13
2023-05-21T06:33:14.988Z,101465.44
2023-05-21T06:35:43.055Z,101465.22
2023-05-21T06:38:11.013Z,101469.41
2023-05-21T06:40:39.009Z,101470.25
2023-05-21T06:43:06.975Z,101472.56
2023-05-21T06:45:35.138Z,101474.03
2023-05-21T06:48:03.420Z,101467.75
2023-05-21T06:50:32.800Z,101477.00
2023-05-21T06:53:00.782Z,101472.38
2023-05-21T06:55:28.705Z,101466.03
2023-05-21T06:57:58.762Z,101470.03
2023-05-21T07:00:26.892Z,101470.88
2023-05-21T07:02:54.954Z,101467.72
2023-05-21T07:05:22.987Z,101459.25
2023-05-21T07:07:52.343Z,101458.75
2023-05-21T07:10:21.565Z,101467.78
2023-05-21T07:12:49.531Z,101468.53
2023-05-21T07:15:18.609Z,101466.81
2023-05-21T07:17:46.562Z,101466.94
2023-05-21T07:20:15.101Z,101470.94
2023-05-21T07:22:45.010Z,101467.88
2023-05-21T07:25:14.401Z,101465.41
2023-05-21T07:27:43.460Z,101467.34
2023-05-21T07:30:12.600Z,101468.38
2023-05-21T07:32:41.118Z,101458.03
2023-05-21T07:35:09.969Z,101467.06
2023-05-21T07:37:37.997Z,101460.09
2023-05-21T07:40:08.140Z,101463.72
2023-05-21T07:42:37.607Z,101458.03
2023-05-21T07:45:07.269Z,101465.00
2023-05-21T07:47:35.100Z,101460.56
2023-05-21T07:50:03.219Z,101467.47
2023-05-21T07:52:31.193Z,101464.81
2023-05-21T07:54:59.347Z,101457.25
2023-05-21T07:57:27.844Z,101446.75
2023-05-21T07:59:57.561Z,101453.34
2023-05-21T08:02:25.566Z,101448.59
2023-05-21T08:04:55.090Z,101445.16
2023-05-21T08:07:23.412Z,101450.63
2023-05-21T08:09:51.584Z,101448.38
2023-05-21T08:12:19.735Z,101447.72
2023-05-21T08:14:47.790Z,101446.13
2023-05-21T08:17:17.735Z,101444.94
2023-05-21T08:19:45.711Z,101449.00
2023-05-21T08:22:13.864Z,101446.66
2023-05-21T08:24:41.895Z,101456.63
2023-05-21T08:27:10.179Z,101445.94
2023-05-21T08:29:38.252Z,101442.66
2023-05-21T08:32:07.502Z,101442.41
2023-05-21T08:34:37.020Z,101447.16
2023-05-21T08:37:05.598Z,101436.66
2023-05-21T08:39:33.615Z,101435.38
2023-05-21T08:42:14.310Z,101439.97
2023-05-21T08:44:53.660Z,101448.50
2023-05-21T08:47:27.914Z,101448.25
2023-05-21T08:49:58.905Z,101448.25
2023-05-21T08:52:27.452Z,101439.38
2023-05-21T08:54:57.924Z,101445.13
2023-05-21T08:57:28.402Z,101439.38
2023-05-21T08:59:56.465Z,101444.91
2023-05-21T09:02:25.118Z,101436.97
2023-05-21T09:04:58.753Z,101442.94
2023-05-21T09:07:29.732Z,101445.94
2023-05-21T09:10:03.783Z,101443.22
2023-05-21T09:12:32.996Z,101436.75
2023-05-21T09:15:02.293Z,101444.63
2023-05-21T09:17:30.538Z,101438.69
2023-05-21T09:20:16.253Z,101430.59
2023-05-21T09:22:46.512Z,101433.81
2023-05-21T09:25:17.089Z,101431.34
2023-05-21T09:27:45.944Z,101438.22
2023-05-21T09:30:18.143Z,101440.97
2023-05-21T09:32:47.218Z,101433.91
2023-05-21T09:35:17.030Z,101432.91
2023-05-21T09:37:48.396Z,101432.81
2023-05-21T09:40:18.437Z,101426.22
2023-05-21T09:42:48.533Z,101427.84
2023-05-21T09:45:20.419Z,101419.19
2023-05-21T09:47:50.715Z,101421.72
2023-05-21T09:50:22.849Z,101421.72
2023-05-21T09:52:53.057Z,101423.88
2023-05-21T09:55:26.533Z,101437.78
2023-05-21T09:57:54.983Z,101417.88
2023-05-21T10:00:28.489Z,101425.22
2023-05-21T10:02:58.790Z,101413.88
2023-05-21T10:05:30.286Z,101415.53
2023-05-21T10:08:02.266Z,101414.94
2023-05-21T10:10:32.181Z,101405.88
2023-05-21T10:13:06.716Z,101400.63
2023-05-21T10:15:48.819Z,101400.72
2023-05-21T10:18:21.405Z,101405.47
2023-05-21T10:20:51.292Z,101399.53
2023-05-21T10:23:21.170Z,101398.69
2023-05-21T10:25:50.701Z,101399.75
2023-05-21T10:28:19.030Z,101393.44
2023-05-21T10:30:47.860Z,101392.38
2023-05-21T10:33:17.535Z,101385.06
2023-05-21T10:35:47.829Z,101394.53
2023-05-21T10:38:21.936Z,101375.88
2023-05-21T10:40:51.465Z,101380.16
2023-05-21T10:43:46.452Z,101364.75
2023-05-21T10:46:55.399Z,101373.63
2023-05-21T10:49:45.470Z,101375.75
2023-05-21T10:52:33.491Z,101378.44
2023-05-21T10:55:21.158Z,101371.00
2023-05-21T10:58:22.132Z,101368.94
2023-05-21T11:00:51.335Z,101366.41
2023-05-21T11:03:20.911Z,101371.00
2023-05-21T11:05:57.183Z,101365.81
2023-05-21T11:08:27.628Z,101364.78
2023-05-21T11:10:59.073Z,101371.88
2023-05-21T11:13:28.520Z,101357.31
2023-05-21T11:16:15.741Z,101369.66
2023-05-21T11:19:03.387Z,101363.91
2023-05-21T11:21:34.863Z,101354.53
2023-05-21T11:24:10.899Z,101355.19
2023-05-21T11:27:04.922Z,101353.22
2023-05-21T11:29:47.150Z,101355.88
2023-05-21T11:32:17.511Z,101345.88
2023-05-21T11:34:49.684Z,101351.41
2023-05-21T11:37:33.494Z,101354.50
2023-05-21T11:40:26.130Z,101349.47
2023-05-21T11:42:57.395Z,101349.22
2023-05-21T11:45:31.863Z,101346.34
2023-05-21T11:48:01.729Z,101336.41
2023-05-21T11:50:33.672Z,101344.31
2023-05-21T11:53:01.948Z,101343.25
2023-05-21T11:55:30.034Z,101341.09
2023-05-21T11:58:00.850Z,101343.16
2023-05-21T12:00:28.895Z,101340.47
2023-05-21T12:02:58.868Z,101338.91
2023-05-21T12:05:27.485Z,101329.22
2023-05-21T12:07:56.427Z,101342.53
2023-05-21T12:10:24.694Z,101334.50
2023-05-21T12:12:57.029Z,101333.59
2023-05-21T12:15:28.437Z,101328.66
2023-05-21T12:17:58.039Z,101330.66
2023-05-21T12:20:27.901Z,101337.63
2023-05-21T12:22:57.774Z,101321.75
2023-05-21T12:25:25.937Z,101325.44
2023-05-21T12:27:58.494Z,101326.56
2023-05-21T12:30:29.605Z,101330.38
2023-05-21T12:33:02.084Z,101331.78
2023-05-21T12:35:32.117Z,101328.03
2023-05-21T12:38:03.945Z,101332.47
2023-05-21T12:40:41.434Z,101324.72
2023-05-21T12:43:09.715Z,101324.78
2023-05-21T12:45:40.546Z,101318.75
2023-05-21T12:48:09.139Z,101326.91
2023-05-21T12:50:41.820Z,101318.16
2023-05-21T12:53:12.537Z,101318.38
2023-05-21T12:55:41.185Z,101308.94
2023-05-21T12:58:09.579Z,101319.09
2023-05-21T13:00:39.386Z,101315.97
2023-05-21T13:03:07.609Z,101316.16
2023-05-21T13:05:36.330Z,101311.31
2023-05-21T13:08:04.537Z,101318.78
2023-05-21T13:10:32.498Z,101302.19
2023-05-21T13:13:00.582Z,101304.47
2023-05-21T13:15:29.166Z,101305.94
2023-05-21T13:18:01.222Z,101310.84
2023-05-21T13:20:32.048Z,101308.56
2023-05-21T13:23:05.653Z,101307.16
2023-05-21T13:25:34.834Z,101297.72
2023-05-21T13:28:05.919Z,101293.50
2023-05-21T13:30:34.300Z,101298.78
2023-05-21T13:33:04.001Z,101296.00
2023-05-21T13:35:32.276Z,101295.91
2023-05-21T13:38:03.191Z,101292.81
2023-05-21T13:40:33.226Z,101295.31
2023-05-21T13:43:01.346Z,101292.94
2023-05-21T13:45:29.984Z,101285.91
2023-05-21T13:47:58.036Z,101285.66
2023-05-21T13:50:27.674Z,101295.28
2023-05-21T13:52:55.583Z,101291.88
2023-05-21T13:55:23.884Z,101275.88
2023-05-21T13:57:54.291Z,101281.75
2023-05-21T14:00:23.537Z,101284.81
2023-05-21T14:02:51.633Z,101279.81
2023-05-21T14:05:20.038Z,101271.22
2023-05-21T14:07:49.614Z,101283.69
2023-05-21T14:10:17.476Z,101291.00
2023-05-21T14:12:47.090Z,101281.34
2023-05-21T14:15:14.931Z,101277.06
2023-05-21T14:17:42.963Z,101278.66
2023-05-21T14:20:12.312Z,101266.88
2023-05-21T14:22:40.556Z,101272.03
2023-05-21T14:25:11.080Z,101278.06
2023-05-21T14:27:39.161Z,101280.88
2023-05-21T14:30:08.900Z,101274.34
2023-05-21T14:32:37.177Z,101280.22
2023-05-21T14:35:06.714Z,101277.66
2023-05-21T14:37:34.690Z,101268.28
2023-05-21T14:40:05.483Z,101274.94
2023-05-21T14:42:35.047Z,101270.69
2023-05-21T14:45:17.633Z,101279.25
2023-05-21T14:47:48.382Z,101282.34
2023-05-21T14:50:20.192Z,101279.38
2023-05-21T14:52:48.188Z,101279.63
2023-05-21T14:55:18.358Z,101285.19
2023-05-21T14:57:47.816Z,101276.22
2023-05-21T15:00:16.490Z,101267.97
2023-05-21T15:02:44.753Z,101269.56
2023-05-21T15:05:12.911Z,101280.19
2023-05-21T15:07:40.932Z,101278.31
2023-05-21T15:10:10.813Z,101274.97
2023-05-21T15:12:38.829Z,101266.63
2023-05-21T15:15:09.820Z,101271.06
2023-05-21T15:17:38.022Z,101277.44
2023-05-21T15:20:07.808Z,101270.75
2023-05-21T15:22:36.154Z,101280.59
2023-05-21T15:25:05.746Z,101274.09
2023-05-21T15:27:33.964Z,101269.44
2023-05-21T15:30:02.837Z,101272.44
2023-05-21T15:32:32.314Z,101275.94
2023-05-21T15:35:00.657Z,101273.34
2023-05-21T15:37:32.230Z,101271.84
2023-05-21T15:40:00.748Z,101256.81
2023-05-21T15:42:31.775Z,101262.81
2023-05-21T15:45:00.166Z,101266.84
2023-05-21T15:47:28.191Z,101263.31
2023-05-21T15:49:58.705Z,101270.22
2023-05-21T15:52:26.909Z,101267.63
2023-05-21T15:54:54.906Z,101264.59
2023-05-21T15:57:22.930Z,101266.53
2023-05-21T15:59:52.444Z,101261.94
2023-05-21T16:02:20.502Z,101260.13
2023-05-21T16:04:50.012Z,101260.84
2023-05-21T16:07:19.886Z,101264.53
2023-05-21T16:09:47.819Z,101259.50
2023-05-21T16:12:15.915Z,101257.38
2023-05-21T16:14:43.960Z,101256.25
2023-05-21T16:17:12.099Z,101255.09
2023-05-21T16:19:40.276Z,101253.34
2023-05-21T16:22:10.670Z,101256.94
2023-05-21T16:24:40.326Z,101250.94
2023-05-21T16:27:08.357Z,101247.38
2023-05-21T16:29:38.083Z,101245.03
2023-05-21T16:32:08.021Z,101238.31
2023-05-21T16:34:36.311Z,101240.38
2023-05-21T16:37:04.481Z,101238.44
2023-05-21T16:39:32.524Z,101232.88
2023-05-21T16:42:02.738Z,101237.06
2023-05-21T16:44:31.907Z,101242.09
2023-05-21T16:47:01.963Z,101233.91
2023-05-21T16:49:30.032Z,101231.47
2023-05-21T16:51:58.021Z,101231.50
2023-05-21T16:54:26.143Z,101228.44
2023-05-21T16:56:54.566Z,101237.47
2023-05-21T16:59:25.019Z,101236.91
2023-05-21T17:01:53.182Z,101231.31
2023-05-21T17:04:21.216Z,101241.72
2023-05-21T17:06:49.263Z,101241.63
2023-05-21T17:09:18.798Z,101246.03
2023-05-21T17:11:46.626Z,101245.34
2023-05-21T17:14:23.225Z,101246.38
2023-05-21T17:17:02.282Z,101256.69
2023-05-21T17:19:32.283Z,101254.75
2023-05-21T17:22:00.363Z,101253.88
2023-05-21T17:24:28.377Z,101256.91
2023-05-21T17:26:58.055Z,101252.00
2023-05-21T17:29:25.880Z,101256.19
2023-05-21T17:31:55.776Z,101263.72
2023-05-21T17:34:29.568Z,101251.03
2023-05-21T17:36:59.703Z,101254.63
2023-05-21T17:39:30.552Z,101261.75
2023-05-21T17:41:58.634Z,101255.38
2023-05-21T17:44:26.651Z,101257.59
2023-05-21T17:46:54.803Z,101256.56
2023-05-21T17:49:26.428Z,101256.56
2023-05-21T17:51:54.717Z,101249.28
2023-05-21T17:54:22.719Z,101252.22
2023-05-21T17:56:50.725Z,101249.03
2023-05-21T17:59:18.726Z,101251.22
2023-05-21T18:01:47.348Z,101254.31
2023-05-21T18:04:15.407Z,101260.41
2023-05-21T18:06:44.993Z,101265.09
2023-05-21T18:09:14.307Z,101257.88
2023-05-21T18:11:44.970Z,101263.03
2023-05-21T18:14:12.977Z,101266.69
2023-05-21T18:16:41.437Z,101274.75
2023-05-21T18:19:09.484Z,101274.06
2023-05-21T18:21:38.778Z,101268.00
2023-05-21T18:24:09.231Z,101264.81
2023-05-21T18:26:37.366Z,101265.81
2023-05-21T18:29:05.349Z,101270.13
2023-05-21T18:31:33.377Z,101270.34
2023-05-21T18:34:01.346Z,101271.28
2023-05-21T18:36:29.563Z,101269.75
2023-05-21T18:38:57.588Z,101274.91
2023-05-21T18:41:27.016Z,101274.34
2023-05-21T18:43:54.897Z,101275.44
2023-05-21T18:46:22.934Z,101277.09
2023-05-21T18:48:50.880Z,101277.47
2023-05-21T18:51:19.018Z,101284.91
2023-05-21T18:53:47.035Z,101282.88
2023-05-21T18:56:14.982Z,101286.69
2023-05-21T18:58:44.388Z,101275.72
2023-05-21T19:01:12.549Z,101278.25
2023-05-21T19:03:40.563Z,101274.75
2023-05-21T19:06:09.955Z,101289.34
2023-05-21T19:08:37.906Z,101286.00
2023-05-21T19:11:07.417Z,101284.28
2023-05-21T19:13:35.633Z,101285.00
2023-05-21T19:16:10.720Z,101291.31
2023-05-21T19:18:42.048Z,101293.81
2023-05-21T19:21:11.588Z,101298.94
2023-05-21T19:23:51.707Z,101305.28
2023-05-21T19:26:21.210Z,101303.13
2023-05-21T19:28:52.847Z,101308.56
2023-05-21T19:31:23.356Z,101308.56
2023-05-21T19:33:51.778Z,101307.41
2023-05-21T19:36:19.835Z,101307.22
2023-05-21T19:38:49.137Z,101316.19
2023-05-21T19:41:17.830Z,101309.00
2023-05-21T19:43:46.857Z,101315.84
2023-05-21T19:46:18.077Z,101317.88
2023-05-21T19:48:49.602Z,101319.81
2023-05-21T19:51:17.976Z,101312.81
2023-05-21T19:53:45.939Z,101319.00
2023-05-21T19:56:13.908Z,101309.94
2023-05-21T19:58:46.789Z,101310.91
2023-05-21T20:01:15.319Z,101320.09
2023-05-21T20:03:45.472Z,101322.09
2023-05-21T20:06:18.734Z,101321.94
2023-05-21T20:08:46.766Z,101312.63
2023-05-21T20:11:14.793Z,101314.25
2023-05-21T20:13:42.865Z,101324.59
2023-05-21T20:16:12.545Z,101317.34
2023-05-21T20:18:41.599Z,101320.75
2023-05-21T20:21:09.566Z,101316.44
2023-05-21T20:23:38.906Z,101319.75
2023-05-21T20:26:06.920Z,101320.97
2023-05-21T20:28:36.010Z,101321.41
2023-05-21T20:31:04.504Z,101320.88
2023-05-21T20:33:34.315Z,101316.06
2023-05-21T20:36:02.310Z,101324.28
2023-05-21T20:38:33.172Z,101327.94
2023-05-21T20:41:02.562Z,101329.91
2023-05-21T20:43:30.676Z,101335.16
2023-05-21T20:46:00.374Z,101328.38
2023-05-21T20:48:29.246Z,101331.34
2023-05-21T20:50:57.392Z,101333.94
2023-05-21T20:53:25.989Z,101330.31
2023-05-21T20:55:54.568Z,101338.34
2023-05-21T20:58:25.403Z,101341.72
2023-05-21T21:00:55.168Z,101342.50
2023-05-21T21:03:23.151Z,101342.81
2023-05-21T21:05:52.801Z,101342.66
2023-05-21T21:08:20.761Z,101331.28
2023-05-21T21:10:48.753Z,101334.66
2023-05-21T21:13:16.731Z,101335.97
2023-05-21T21:15:46.162Z,101341.66
2023-05-21T21:18:14.189Z,101346.28
2023-05-21T21:20:42.606Z,101344.38
2023-05-21T21:23:10.544Z,101337.91
2023-05-21T21:25:38.524Z,101338.97
2023-05-21T21:28:06.444Z,101341.06
2023-05-21T21:30:34.441Z,101333.03
2023-05-21T21:33:03.981Z,101332.81
2023-05-21T21:35:32.124Z,101347.34
2023-05-21T21:38:00.124Z,101344.09
2023-05-21T21:40:28.316Z,101338.97
2023-05-21T21:42:56.224Z,101343.22
2023-05-21T21:45:24.067Z,101341.25
2023-05-21T21:47:52.021Z,101343.03
2023-05-21T21:50:21.414Z,101347.91
2023-05-21T21:52:49.840Z,101342.19
2023-05-21T21:55:18.931Z,101337.34
2023-05-21T21:57:46.858Z,101339.91
2023-05-21T22:00:18.029Z,101342.06
2023-05-21T22:02:47.416Z,101347.69
2023-05-21T22:05:15.642Z,101350.00
2023-05-21T22:07:46.948Z,101345.00
2023-05-21T22:10:16.084Z,101354.25
2023-05-21T22:12:45.914Z,101342.88
2023-05-21T22:15:22.890Z,101336.22
2023-05-21T22:17:51.813Z,101342.84
2023-05-21T22:20:20.116Z,101347.63
2023-05-21T22:22:49.544Z,101345.63
2023-05-21T22:25:17.618Z,101341.16
2023-05-21T22:27:45.638Z,101344.25
2023-05-21T22:30:14.234Z,101340.38
2023-05-21T22:32:42.317Z,101336.19
2023-05-21T22:35:12.471Z,101342.13
2023-05-21T22:37:40.903Z,101336.41
2023-05-21T22:40:11.476Z,101342.28
2023-05-21T22:42:40.450Z,101341.50
2023-05-21T22:45:11.009Z,101337.44
2023-05-21T22:47:39.464Z,101338.34
2023-05-21T22:50:10.024Z,101341.47
2023-05-21T22:52:38.325Z,101344.19
2023-05-21T22:55:07.876Z,101344.44
2023-05-21T22:57:37.175Z,101346.38
2023-05-21T23:00:07.445Z,101343.81
2023-05-21T23:02:35.612Z,101342.06
2023-05-21T23:05:03.748Z,101336.59
2023-05-21T23:07:32.159Z,101347.66
2023-05-21T23:10:00.147Z,101346.00
2023-05-21T23:12:28.090Z,101341.75
2023-05-21T23:14:57.410Z,101333.63
2023-05-21T23:17:25.367Z,101336.28
2023-05-21T23:19:53.411Z,101329.50
2023-05-21T23:22:21.720Z,101327.84
2023-05-21T23:24:50.976Z,101328.03
2023-05-21T23:27:19.431Z,101320.66
2023-05-21T23:29:47.332Z,101330.44
2023-05-21T23:32:16.735Z,101319.31
2023-05-21T23:34:44.779Z,101317.56
2023-05-21T23:37:13.111Z,101325.09
2023-05-21T23:39:41.047Z,101320.78
2023-05-21T23:42:09.215Z,101323.09
2023-05-21T23:44:37.565Z,101321.41
2023-05-21T23:47:06.484Z,101320.19
2023-05-21T23:49:35.786Z,101312.31
2023-05-21T23:52:04.090Z,101316.59
2023-05-21T23:54:32.435Z,101313.19
2023-05-21T23:57:00.328Z,101315.97
2023-05-21T23:59:28.280Z,101313.63
